首页
METAR-TAF:

METAR-TAF

机场 :

塞舌尔国际机场

维多利亚, 马埃岛, 塞舌尔

纬度: 04-40S, 经度: 055-31E, 海拔: 3米

当前天气观测

该预报发布于1小时和6分钟前的12:00 UTC
风速11节,风向东转东南,在之间变化
温度 31°C
湿度 71%
气压 1008 hPa
能见度10公里或以上
少量云层高于2000英尺, 塔状积云.
散云层高于2300英尺

METAR: FSIA 201200Z 12011KT 090V170 9999 FEW020TCU SCT023 31/25 Q1008 NOSIG

时间: 17:06 (13:06 UTC)

预报

该预报发布于2小时和6分钟前的11:00 UTC
预报有效从20日的 12点(UTC)到 21日的 12点(UTC)
风速10节,风向东南
能见度10公里或以上
散云层高于2200英尺

TAF: FSIA 201100Z 2012/2112 13010KT 9999 SCT022

超过4000个机场的气象观测和天气预报(METAR&TAF报告)。

可查询的气象台以黄色和红色小点在地图上表示。

将鼠标移到小点上方,可查看气象台名称。

然后点击查看天气观测和预报。

如需切换地图:点击带黑十字的绿色按钮放大地图;点击带横线的绿色按钮缩小地图;或者点击绿色箭头查看邻近地区的地图。


METAR-TAF: